createdAt,value
2022-10-17T00:00:21.895Z,4.43
2022-10-17T00:05:25.141Z,4.30
2022-10-17T00:10:28.260Z,4.40
2022-10-17T00:15:33.724Z,5.00
2022-10-17T00:20:37.059Z,5.00
2022-10-17T00:25:40.740Z,4.57
2022-10-17T00:30:45.075Z,4.13
2022-10-17T00:35:48.025Z,5.57
2022-10-17T00:46:03.343Z,4.97
2022-10-17T00:51:07.444Z,4.23
2022-10-17T00:56:10.664Z,4.53
2022-10-17T01:01:15.085Z,4.80
2022-10-17T01:06:18.883Z,4.60
2022-10-17T01:11:33.998Z,4.50
2022-10-17T01:16:49.059Z,4.90
2022-10-17T01:22:01.334Z,5.27
2022-10-17T01:27:30.845Z,5.13
2022-10-17T01:32:40.633Z,5.50
2022-10-17T01:37:48.399Z,5.10
2022-10-17T01:42:59.201Z,5.30
2022-10-17T01:48:11.158Z,4.73
2022-10-17T01:53:20.473Z,5.20
2022-10-17T01:58:30.123Z,5.60
2022-10-17T02:03:35.989Z,6.00
2022-10-17T02:08:44.425Z,5.93
2022-10-17T02:14:04.763Z,5.50
2022-10-17T02:19:22.284Z,5.93
2022-10-17T02:24:34.197Z,5.73
2022-10-17T02:29:45.999Z,5.80
2022-10-17T02:34:53.612Z,5.70
2022-10-17T02:40:00.212Z,6.40
2022-10-17T02:45:05.150Z,6.07
2022-10-17T02:50:10.345Z,5.75
2022-10-17T02:55:21.796Z,6.00
2022-10-17T03:00:27.792Z,5.32
2022-10-17T03:05:33.769Z,5.53
2022-10-17T03:10:36.776Z,6.40
2022-10-17T03:15:40.119Z,5.45
2022-10-17T03:20:44.883Z,5.72
2022-10-17T03:25:47.960Z,5.80
2022-10-17T03:30:53.618Z,5.40
2022-10-17T03:36:01.140Z,5.72
2022-10-17T03:41:04.654Z,5.05
2022-10-17T03:46:09.329Z,5.88
2022-10-17T03:51:15.531Z,5.10
2022-10-17T03:56:25.174Z,5.93
2022-10-17T04:01:50.574Z,4.68
2022-10-17T04:06:56.327Z,5.03
2022-10-17T04:11:59.469Z,5.10
2022-10-17T04:17:02.749Z,5.22
2022-10-17T04:22:08.644Z,4.70
2022-10-17T04:27:14.541Z,4.75
2022-10-17T04:32:21.689Z,5.65
2022-10-17T04:37:31.599Z,4.95
2022-10-17T04:42:37.915Z,5.07
2022-10-17T04:47:41.257Z,5.60
2022-10-17T04:52:45.804Z,4.85
2022-10-17T04:57:48.933Z,5.20
2022-10-17T05:02:56.757Z,5.20
2022-10-17T05:08:01.282Z,6.13
2022-10-17T05:13:08.966Z,4.88
2022-10-17T05:18:12.870Z,4.93
2022-10-17T05:23:18.802Z,5.50
2022-10-17T05:28:21.910Z,5.43
2022-10-17T05:33:25.041Z,5.05
2022-10-17T05:38:29.797Z,5.88
2022-10-17T05:43:34.520Z,5.30
2022-10-17T05:48:37.662Z,4.65
2022-10-17T05:53:43.373Z,5.70
2022-10-17T05:58:56.230Z,5.32
2022-10-17T06:04:22.686Z,4.93
2022-10-17T06:09:27.347Z,5.43
2022-10-17T06:14:31.481Z,4.88
2022-10-17T06:19:38.083Z,5.32
2022-10-17T06:24:43.759Z,5.18
2022-10-17T06:29:51.336Z,5.13
2022-10-17T06:34:54.527Z,5.15
2022-10-17T06:40:00.363Z,4.80
2022-10-17T06:45:03.450Z,4.75
2022-10-17T06:50:29.363Z,5.00
2022-10-17T06:55:47.211Z,4.72
2022-10-17T07:01:01.086Z,4.68
2022-10-17T07:06:05.438Z,4.68
2022-10-17T07:11:14.105Z,4.40
2022-10-17T07:16:18.038Z,4.30
2022-10-17T07:21:28.521Z,5.18
2022-10-17T07:26:33.689Z,4.82
2022-10-17T07:31:37.788Z,4.25
2022-10-17T07:36:40.906Z,4.72
2022-10-17T07:41:47.626Z,4.88
2022-10-17T07:46:51.265Z,5.20
2022-10-17T07:51:55.139Z,6.10
2022-10-17T07:56:59.544Z,6.10
2022-10-17T08:02:02.790Z,5.60
2022-10-17T08:07:19.094Z,7.15
2022-10-17T08:12:26.108Z,5.78
2022-10-17T08:17:29.240Z,7.80
2022-10-17T08:22:32.721Z,6.15
2022-10-17T08:27:37.351Z,6.63
2022-10-17T08:32:40.554Z,7.28
2022-10-17T08:37:43.939Z,6.90
2022-10-17T08:43:02.177Z,7.25
2022-10-17T08:48:10.947Z,8.20
2022-10-17T08:53:19.045Z,7.05
2022-10-17T08:58:26.074Z,8.13
2022-10-17T09:03:54.933Z,8.02
2022-10-17T09:09:26.342Z,8.75
2022-10-17T09:14:51.966Z,8.15
2022-10-17T09:20:04.445Z,8.60
2022-10-17T09:25:14.264Z,8.95
2022-10-17T09:30:44.120Z,8.98
2022-10-17T09:35:48.674Z,8.55
2022-10-17T09:40:57.227Z,8.98
2022-10-17T09:46:10.076Z,8.68
2022-10-17T09:51:25.852Z,7.88
2022-10-17T09:56:29.435Z,8.35
2022-10-17T10:01:34.916Z,8.88
2022-10-17T10:06:38.452Z,8.60
2022-10-17T10:11:51.237Z,8.07
2022-10-17T10:16:56.244Z,8.18
2022-10-17T10:22:01.110Z,8.00
2022-10-17T10:27:07.006Z,7.20
2022-10-17T10:32:20.221Z,7.75
2022-10-17T10:37:26.696Z,6.38
2022-10-17T10:42:34.254Z,6.70
2022-10-17T10:47:38.783Z,7.20
2022-10-17T10:52:46.344Z,7.47
2022-10-17T10:57:56.714Z,6.43
2022-10-17T11:03:12.815Z,6.63
2022-10-17T11:08:29.983Z,5.45
2022-10-17T11:13:38.035Z,5.78
2022-10-17T11:18:49.309Z,5.40
2022-10-17T11:24:00.937Z,5.10
2022-10-17T11:29:06.874Z,5.38
2022-10-17T11:34:19.676Z,6.25
2022-10-17T11:39:31.579Z,5.60
2022-10-17T11:44:37.059Z,5.57
2022-10-17T11:49:49.962Z,5.90
2022-10-17T11:54:57.741Z,5.40
2022-10-17T12:00:22.712Z,5.03
2022-10-17T12:05:35.361Z,4.90
2022-10-17T12:10:47.843Z,4.57
2022-10-17T12:15:53.994Z,5.03
2022-10-17T12:20:59.831Z,4.07
2022-10-17T12:26:05.514Z,4.57
2022-10-17T12:31:13.194Z,4.40
2022-10-17T12:36:53.494Z,4.18
2022-10-17T12:41:56.452Z,3.80
2022-10-17T12:46:59.867Z,3.35
2022-10-17T12:52:23.535Z,3.78
2022-10-17T12:57:34.022Z,4.00
2022-10-17T13:02:37.084Z,3.53
2022-10-17T13:07:44.063Z,3.60
2022-10-17T13:12:47.920Z,3.50
2022-10-17T13:17:58.761Z,3.70
2022-10-17T13:23:03.892Z,4.10
2022-10-17T13:28:14.693Z,3.47
2022-10-17T13:33:35.849Z,3.90
2022-10-17T13:38:42.692Z,3.20
2022-10-17T13:43:48.513Z,3.28
2022-10-17T13:48:52.529Z,3.28
2022-10-17T13:53:57.986Z,3.80
2022-10-17T13:59:06.128Z,2.90
2022-10-17T14:04:19.532Z,3.80
2022-10-17T14:09:28.485Z,3.55
2022-10-17T14:14:51.737Z,3.65
2022-10-17T14:25:36.435Z,3.50
2022-10-17T14:31:02.955Z,3.35
2022-10-17T14:36:06.594Z,3.28
2022-10-17T14:46:50.732Z,3.30
2022-10-17T14:52:18.382Z,3.45
2022-10-17T14:57:27.938Z,3.20
2022-10-17T15:02:31.606Z,3.08
2022-10-17T15:07:34.994Z,3.50
2022-10-17T15:12:43.623Z,3.05
2022-10-17T15:17:51.083Z,3.90
2022-10-17T15:22:54.666Z,4.40
2022-10-17T15:27:59.529Z,4.20
2022-10-17T15:33:02.623Z,4.30
2022-10-17T15:38:08.241Z,4.65
2022-10-17T15:43:15.027Z,4.22
2022-10-17T15:48:27.379Z,5.18
2022-10-17T15:53:30.445Z,4.50
2022-10-17T15:58:37.262Z,4.45
2022-10-17T16:03:40.741Z,4.15
2022-10-17T16:08:43.625Z,4.10
2022-10-17T16:13:52.486Z,4.40
2022-10-17T16:18:55.873Z,4.38
2022-10-17T16:23:59.066Z,3.72
2022-10-17T16:29:04.995Z,3.67
2022-10-17T16:34:09.076Z,4.22
2022-10-17T16:39:12.185Z,4.28
2022-10-17T16:44:17.951Z,4.60
2022-10-17T16:49:21.223Z,4.28
2022-10-17T16:54:24.370Z,4.68
2022-10-17T16:59:29.296Z,4.90
2022-10-17T17:04:35.263Z,5.07
2022-10-17T17:09:38.476Z,5.05
2022-10-17T17:14:43.125Z,6.10
2022-10-17T17:19:49.061Z,4.82
2022-10-17T17:24:52.113Z,4.78
2022-10-17T17:29:56.677Z,5.72
2022-10-17T17:35:00.321Z,6.28
2022-10-17T17:40:03.427Z,6.85
2022-10-17T17:45:09.606Z,6.45
2022-10-17T17:50:12.688Z,6.85
2022-10-17T17:55:15.796Z,6.90
2022-10-17T18:00:22.973Z,6.78
2022-10-17T18:05:26.348Z,6.25
2022-10-17T18:10:30.573Z,7.80
2022-10-17T18:15:35.225Z,8.05
2022-10-17T18:20:41.826Z,8.68
2022-10-17T18:25:45.156Z,8.82
2022-10-17T18:30:50.038Z,8.15
2022-10-17T18:35:55.989Z,9.90
2022-10-17T18:41:06.529Z,9.45
2022-10-17T18:46:15.087Z,9.95
2022-10-17T18:51:20.533Z,11.65
2022-10-17T18:56:23.937Z,9.20
2022-10-17T19:01:28.940Z,10.43
2022-10-17T19:06:33.432Z,10.82
2022-10-17T19:11:38.083Z,11.25
2022-10-17T19:16:44.721Z,9.68
2022-10-17T19:21:47.993Z,10.10
2022-10-17T19:26:53.494Z,9.75
2022-10-17T19:31:57.926Z,10.27
2022-10-17T19:37:01.267Z,9.48
2022-10-17T19:42:06.874Z,10.05
2022-10-17T19:47:14.103Z,10.10
2022-10-17T19:52:17.434Z,9.38
2022-10-17T19:57:20.739Z,8.85
2022-10-17T20:02:25.575Z,9.50
2022-10-17T20:07:28.692Z,9.80
2022-10-17T20:12:32.014Z,9.45
2022-10-17T20:17:37.269Z,9.18
2022-10-17T20:22:40.617Z,9.88
2022-10-17T20:27:43.806Z,9.02
2022-10-17T20:32:48.243Z,8.38
2022-10-17T20:37:51.778Z,8.75
2022-10-17T20:42:55.112Z,9.35
2022-10-17T20:47:59.563Z,9.15
2022-10-17T20:53:31.390Z,9.20
2022-10-17T20:58:26.480Z,8.07
2022-10-17T21:03:31.197Z,8.55
2022-10-17T21:08:34.155Z,9.73
2022-10-17T21:13:37.328Z,9.30
2022-10-17T21:18:42.059Z,8.27
2022-10-17T21:23:47.262Z,8.32
2022-10-17T21:28:50.935Z,8.27
2022-10-17T21:33:57.292Z,8.75
2022-10-17T21:39:00.632Z,9.68
2022-10-17T21:44:06.198Z,7.82
2022-10-17T21:49:12.500Z,7.85
2022-10-17T21:54:16.944Z,7.22
2022-10-17T21:59:20.125Z,7.97
2022-10-17T22:04:24.662Z,8.18
2022-10-17T22:09:28.843Z,7.80
2022-10-17T22:14:31.900Z,8.02
2022-10-17T22:19:36.500Z,8.55
2022-10-17T22:24:39.536Z,6.93
2022-10-17T22:29:48.104Z,9.77
2022-10-17T22:34:53.380Z,8.45
2022-10-17T22:39:56.434Z,7.53
2022-10-17T22:44:59.473Z,7.20
2022-10-17T22:50:04.141Z,6.78
2022-10-17T22:55:09.016Z,6.97
2022-10-17T23:00:13.345Z,6.28
2022-10-17T23:05:18.122Z,7.22
2022-10-17T23:10:21.445Z,8.45
2022-10-17T23:15:24.586Z,7.80
2022-10-17T23:20:29.514Z,6.80
2022-10-17T23:25:34.720Z,9.60
2022-10-17T23:30:38.361Z,8.90
2022-10-17T23:35:43.118Z,7.83
2022-10-17T23:40:46.196Z,8.00
2022-10-17T23:45:49.532Z,7.65
2022-10-17T23:50:54.168Z,7.85
2022-10-17T23:55:57.378Z,8.73
